sensor_id;sensor_type;location;lat;lon;timestamp;P1;durP1;ratioP1;P2;durP2;ratioP2
10461;SDS011;5278;42.656;23.374;2023-09-08T00:01:19;12.50;;;11.07;;
10461;SDS011;5278;42.656;23.374;2023-09-08T00:03:46;14.07;;;11.30;;
10461;SDS011;5278;42.656;23.374;2023-09-08T00:06:14;11.80;;;10.47;;
10461;SDS011;5278;42.656;23.374;2023-09-08T00:08:42;14.33;;;12.77;;
10461;SDS011;5278;42.656;23.374;2023-09-08T00:11:09;15.60;;;12.07;;
10461;SDS011;5278;42.656;23.374;2023-09-08T00:13:36;12.77;;;11.30;;
10461;SDS011;5278;42.656;23.374;2023-09-08T00:16:04;15.23;;;10.17;;
10461;SDS011;5278;42.656;23.374;2023-09-08T00:18:32;11.63;;;9.13;;
10461;SDS011;5278;42.656;23.374;2023-09-08T00:20:59;10.23;;;8.50;;
10461;SDS011;5278;42.656;23.374;2023-09-08T00:23:25;8.23;;;7.43;;
10461;SDS011;5278;42.656;23.374;2023-09-08T00:25:54;9.57;;;7.40;;
10461;SDS011;5278;42.656;23.374;2023-09-08T00:28:23;8.33;;;6.97;;
10461;SDS011;5278;42.656;23.374;2023-09-08T00:30:50;8.37;;;6.87;;
10461;SDS011;5278;42.656;23.374;2023-09-08T00:33:17;7.53;;;6.70;;
10461;SDS011;5278;42.656;23.374;2023-09-08T00:35:44;9.17;;;7.10;;
10461;SDS011;5278;42.656;23.374;2023-09-08T00:38:11;8.40;;;6.53;;
10461;SDS011;5278;42.656;23.374;2023-09-08T00:40:41;8.10;;;6.37;;
10461;SDS011;5278;42.656;23.374;2023-09-08T00:43:15;7.30;;;5.50;;
10461;SDS011;5278;42.656;23.374;2023-09-08T00:45:43;10.87;;;5.27;;
10461;SDS011;5278;42.656;23.374;2023-09-08T00:48:11;7.57;;;5.93;;
10461;SDS011;5278;42.656;23.374;2023-09-08T00:50:39;8.10;;;5.47;;
10461;SDS011;5278;42.656;23.374;2023-09-08T00:53:07;9.10;;;5.00;;
10461;SDS011;5278;42.656;23.374;2023-09-08T00:55:36;5.73;;;5.23;;
10461;SDS011;5278;42.656;23.374;2023-09-08T00:58:05;6.73;;;5.30;;
10461;SDS011;5278;42.656;23.374;2023-09-08T01:00:33;6.20;;;5.60;;
10461;SDS011;5278;42.656;23.374;2023-09-08T01:03:00;8.40;;;6.00;;
10461;SDS011;5278;42.656;23.374;2023-09-08T01:05:27;8.00;;;5.07;;
10461;SDS011;5278;42.656;23.374;2023-09-08T01:07:55;9.37;;;5.37;;
10461;SDS011;5278;42.656;23.374;2023-09-08T01:10:25;6.83;;;5.37;;
10461;SDS011;5278;42.656;23.374;2023-09-08T01:12:52;6.67;;;5.37;;
10461;SDS011;5278;42.656;23.374;2023-09-08T01:15:19;8.03;;;5.40;;
10461;SDS011;5278;42.656;23.374;2023-09-08T01:17:47;5.83;;;5.23;;
10461;SDS011;5278;42.656;23.374;2023-09-08T01:20:15;8.33;;;6.07;;
10461;SDS011;5278;42.656;23.374;2023-09-08T01:23:01;6.30;;;5.67;;
10461;SDS011;5278;42.656;23.374;2023-09-08T01:25:37;7.70;;;5.70;;
10461;SDS011;5278;42.656;23.374;2023-09-08T01:28:07;5.27;;;4.77;;
10461;SDS011;5278;42.656;23.374;2023-09-08T01:30:36;6.87;;;6.10;;
10461;SDS011;5278;42.656;23.374;2023-09-08T01:33:04;8.47;;;5.83;;
10461;SDS011;5278;42.656;23.374;2023-09-08T01:35:35;8.00;;;5.50;;
10461;SDS011;5278;42.656;23.374;2023-09-08T01:38:02;6.60;;;5.70;;
10461;SDS011;5278;42.656;23.374;2023-09-08T01:40:29;7.57;;;5.50;;
10461;SDS011;5278;42.656;23.374;2023-09-08T01:42:58;6.40;;;5.50;;
10461;SDS011;5278;42.656;23.374;2023-09-08T01:45:25;8.23;;;5.63;;
10461;SDS011;5278;42.656;23.374;2023-09-08T01:47:52;6.43;;;5.27;;
10461;SDS011;5278;42.656;23.374;2023-09-08T01:50:19;11.03;;;6.23;;
10461;SDS011;5278;42.656;23.374;2023-09-08T01:52:47;6.70;;;5.20;;
10461;SDS011;5278;42.656;23.374;2023-09-08T01:55:14;5.93;;;4.93;;
10461;SDS011;5278;42.656;23.374;2023-09-08T01:57:41;6.77;;;5.70;;
10461;SDS011;5278;42.656;23.374;2023-09-08T02:00:12;6.67;;;5.40;;
10461;SDS011;5278;42.656;23.374;2023-09-08T02:02:39;6.30;;;5.70;;
10461;SDS011;5278;42.656;23.374;2023-09-08T02:05:06;6.03;;;5.33;;
10461;SDS011;5278;42.656;23.374;2023-09-08T02:07:34;6.83;;;5.33;;
10461;SDS011;5278;42.656;23.374;2023-09-08T02:10:01;7.23;;;6.07;;
10461;SDS011;5278;42.656;23.374;2023-09-08T02:12:28;9.73;;;6.57;;
10461;SDS011;5278;42.656;23.374;2023-09-08T02:14:56;7.77;;;6.07;;
10461;SDS011;5278;42.656;23.374;2023-09-08T02:17:24;8.67;;;6.80;;
10461;SDS011;5278;42.656;23.374;2023-09-08T02:19:51;8.07;;;5.90;;
10461;SDS011;5278;42.656;23.374;2023-09-08T02:22:18;9.17;;;5.90;;
10461;SDS011;5278;42.656;23.374;2023-09-08T02:24:45;8.17;;;6.80;;
10461;SDS011;5278;42.656;23.374;2023-09-08T02:27:12;7.73;;;6.07;;
10461;SDS011;5278;42.656;23.374;2023-09-08T02:29:39;7.00;;;6.30;;
10461;SDS011;5278;42.656;23.374;2023-09-08T02:32:06;9.67;;;6.87;;
10461;SDS011;5278;42.656;23.374;2023-09-08T02:34:36;6.60;;;5.90;;
10461;SDS011;5278;42.656;23.374;2023-09-08T02:37:03;9.97;;;6.73;;
10461;SDS011;5278;42.656;23.374;2023-09-08T02:39:31;10.93;;;6.40;;
10461;SDS011;5278;42.656;23.374;2023-09-08T02:41:59;8.87;;;5.67;;
10461;SDS011;5278;42.656;23.374;2023-09-08T02:44:25;7.03;;;6.33;;
10461;SDS011;5278;42.656;23.374;2023-09-08T02:46:52;9.47;;;6.70;;
10461;SDS011;5278;42.656;23.374;2023-09-08T02:49:19;10.97;;;6.43;;
10461;SDS011;5278;42.656;23.374;2023-09-08T02:51:48;11.20;;;7.00;;
10461;SDS011;5278;42.656;23.374;2023-09-08T02:54:14;9.57;;;6.80;;
10461;SDS011;5278;42.656;23.374;2023-09-08T02:56:41;8.63;;;7.13;;
10461;SDS011;5278;42.656;23.374;2023-09-08T02:59:09;8.03;;;6.57;;
10461;SDS011;5278;42.656;23.374;2023-09-08T03:01:36;7.13;;;6.43;;
10461;SDS011;5278;42.656;23.374;2023-09-08T03:04:03;8.53;;;6.40;;
10461;SDS011;5278;42.656;23.374;2023-09-08T03:06:32;11.67;;;7.53;;
10461;SDS011;5278;42.656;23.374;2023-09-08T03:09:00;7.80;;;6.80;;
10461;SDS011;5278;42.656;23.374;2023-09-08T03:11:27;7.60;;;6.80;;
10461;SDS011;5278;42.656;23.374;2023-09-08T03:13:54;8.67;;;7.37;;
10461;SDS011;5278;42.656;23.374;2023-09-08T03:16:24;10.57;;;7.73;;
10461;SDS011;5278;42.656;23.374;2023-09-08T03:18:51;9.63;;;7.27;;
10461;SDS011;5278;42.656;23.374;2023-09-08T03:21:18;9.53;;;6.83;;
10461;SDS011;5278;42.656;23.374;2023-09-08T03:23:44;7.63;;;6.90;;
10461;SDS011;5278;42.656;23.374;2023-09-08T03:26:13;8.07;;;7.13;;
10461;SDS011;5278;42.656;23.374;2023-09-08T03:28:41;9.47;;;7.47;;
10461;SDS011;5278;42.656;23.374;2023-09-08T03:31:10;11.77;;;7.13;;
10461;SDS011;5278;42.656;23.374;2023-09-08T03:33:39;10.43;;;7.50;;
10461;SDS011;5278;42.656;23.374;2023-09-08T03:36:08;10.20;;;7.57;;
10461;SDS011;5278;42.656;23.374;2023-09-08T03:38:35;8.77;;;7.37;;
10461;SDS011;5278;42.656;23.374;2023-09-08T03:41:03;9.97;;;7.80;;
10461;SDS011;5278;42.656;23.374;2023-09-08T03:43:31;9.03;;;7.13;;
10461;SDS011;5278;42.656;23.374;2023-09-08T03:45:58;9.20;;;7.40;;
10461;SDS011;5278;42.656;23.374;2023-09-08T03:48:25;10.53;;;8.73;;
10461;SDS011;5278;42.656;23.374;2023-09-08T03:50:52;9.50;;;8.20;;
10461;SDS011;5278;42.656;23.374;2023-09-08T03:53:19;11.07;;;8.33;;
10461;SDS011;5278;42.656;23.374;2023-09-08T03:55:45;12.17;;;7.67;;
10461;SDS011;5278;42.656;23.374;2023-09-08T03:58:14;9.43;;;7.13;;
10461;SDS011;5278;42.656;23.374;2023-09-08T04:00:42;10.57;;;7.87;;
10461;SDS011;5278;42.656;23.374;2023-09-08T04:03:10;9.57;;;7.43;;
10461;SDS011;5278;42.656;23.374;2023-09-08T04:05:37;9.70;;;8.17;;
10461;SDS011;5278;42.656;23.374;2023-09-08T04:08:05;11.60;;;8.10;;
10461;SDS011;5278;42.656;23.374;2023-09-08T04:10:32;10.90;;;7.87;;
10461;SDS011;5278;42.656;23.374;2023-09-08T04:12:59;8.30;;;7.13;;
10461;SDS011;5278;42.656;23.374;2023-09-08T04:15:26;8.30;;;7.40;;
10461;SDS011;5278;42.656;23.374;2023-09-08T04:17:55;10.30;;;7.70;;
10461;SDS011;5278;42.656;23.374;2023-09-08T04:20:22;10.13;;;7.47;;
10461;SDS011;5278;42.656;23.374;2023-09-08T04:22:49;9.33;;;8.00;;
10461;SDS011;5278;42.656;23.374;2023-09-08T04:25:16;9.20;;;7.60;;
10461;SDS011;5278;42.656;23.374;2023-09-08T04:27:43;10.40;;;7.53;;
10461;SDS011;5278;42.656;23.374;2023-09-08T04:30:11;10.70;;;7.47;;
10461;SDS011;5278;42.656;23.374;2023-09-08T04:32:39;9.10;;;7.07;;
10461;SDS011;5278;42.656;23.374;2023-09-08T04:35:08;10.63;;;7.57;;
10461;SDS011;5278;42.656;23.374;2023-09-08T04:37:35;9.03;;;7.93;;
10461;SDS011;5278;42.656;23.374;2023-09-08T04:40:04;9.57;;;7.33;;
10461;SDS011;5278;42.656;23.374;2023-09-08T04:42:32;9.00;;;7.53;;
10461;SDS011;5278;42.656;23.374;2023-09-08T04:44:59;14.87;;;7.70;;
10461;SDS011;5278;42.656;23.374;2023-09-08T04:47:26;14.87;;;7.40;;
10461;SDS011;5278;42.656;23.374;2023-09-08T04:49:53;9.43;;;6.77;;
10461;SDS011;5278;42.656;23.374;2023-09-08T04:52:21;10.93;;;7.33;;
10461;SDS011;5278;42.656;23.374;2023-09-08T04:54:49;9.73;;;7.03;;
10461;SDS011;5278;42.656;23.374;2023-09-08T04:57:16;9.80;;;7.10;;
10461;SDS011;5278;42.656;23.374;2023-09-08T04:59:43;10.60;;;6.53;;
10461;SDS011;5278;42.656;23.374;2023-09-08T05:02:10;8.97;;;6.03;;
10461;SDS011;5278;42.656;23.374;2023-09-08T05:04:36;8.13;;;6.13;;
10461;SDS011;5278;42.656;23.374;2023-09-08T05:07:03;8.60;;;5.47;;
10461;SDS011;5278;42.656;23.374;2023-09-08T05:09:31;7.90;;;5.73;;
10461;SDS011;5278;42.656;23.374;2023-09-08T05:11:59;9.17;;;6.27;;
10461;SDS011;5278;42.656;23.374;2023-09-08T05:14:26;10.27;;;6.00;;
10461;SDS011;5278;42.656;23.374;2023-09-08T05:16:53;8.27;;;5.60;;
10461;SDS011;5278;42.656;23.374;2023-09-08T05:19:21;9.00;;;5.40;;
10461;SDS011;5278;42.656;23.374;2023-09-08T05:21:49;6.30;;;5.40;;
10461;SDS011;5278;42.656;23.374;2023-09-08T05:24:17;6.97;;;5.03;;
10461;SDS011;5278;42.656;23.374;2023-09-08T05:26:47;9.70;;;5.80;;
10461;SDS011;5278;42.656;23.374;2023-09-08T05:29:14;11.30;;;6.03;;
10461;SDS011;5278;42.656;23.374;2023-09-08T05:31:41;9.67;;;5.50;;
10461;SDS011;5278;42.656;23.374;2023-09-08T05:34:08;10.27;;;5.37;;
10461;SDS011;5278;42.656;23.374;2023-09-08T05:36:35;6.50;;;4.97;;
10461;SDS011;5278;42.656;23.374;2023-09-08T05:39:05;6.23;;;5.07;;
10461;SDS011;5278;42.656;23.374;2023-09-08T05:41:33;5.87;;;5.27;;
10461;SDS011;5278;42.656;23.374;2023-09-08T05:44:01;7.57;;;5.50;;
10461;SDS011;5278;42.656;23.374;2023-09-08T05:46:28;10.40;;;5.43;;
10461;SDS011;5278;42.656;23.374;2023-09-08T05:48:55;6.03;;;5.33;;
10461;SDS011;5278;42.656;23.374;2023-09-08T05:51:22;6.37;;;4.70;;
10461;SDS011;5278;42.656;23.374;2023-09-08T05:53:49;6.97;;;5.40;;
10461;SDS011;5278;42.656;23.374;2023-09-08T05:56:17;9.00;;;5.00;;
10461;SDS011;5278;42.656;23.374;2023-09-08T05:58:45;6.03;;;4.80;;
10461;SDS011;5278;42.656;23.374;2023-09-08T06:01:14;7.43;;;5.30;;
10461;SDS011;5278;42.656;23.374;2023-09-08T06:03:42;5.77;;;5.23;;
10461;SDS011;5278;42.656;23.374;2023-09-08T06:06:09;9.97;;;5.60;;
10461;SDS011;5278;42.656;23.374;2023-09-08T06:08:36;6.00;;;5.37;;
10461;SDS011;5278;42.656;23.374;2023-09-08T06:11:02;6.23;;;4.27;;
10461;SDS011;5278;42.656;23.374;2023-09-08T06:13:29;6.57;;;5.00;;
10461;SDS011;5278;42.656;23.374;2023-09-08T06:15:56;7.07;;;4.80;;
10461;SDS011;5278;42.656;23.374;2023-09-08T06:18:25;6.20;;;4.90;;
10461;SDS011;5278;42.656;23.374;2023-09-08T06:20:54;7.37;;;4.80;;
10461;SDS011;5278;42.656;23.374;2023-09-08T06:23:21;5.40;;;4.63;;
10461;SDS011;5278;42.656;23.374;2023-09-08T06:25:48;8.07;;;4.87;;
10461;SDS011;5278;42.656;23.374;2023-09-08T06:28:15;14.87;;;11.93;;
10461;SDS011;5278;42.656;23.374;2023-09-08T06:30:42;8.87;;;5.13;;
10461;SDS011;5278;42.656;23.374;2023-09-08T06:33:09;5.83;;;4.30;;
10461;SDS011;5278;42.656;23.374;2023-09-08T06:35:37;6.87;;;4.30;;
10461;SDS011;5278;42.656;23.374;2023-09-08T06:38:04;5.13;;;4.17;;
10461;SDS011;5278;42.656;23.374;2023-09-08T06:40:31;5.67;;;4.17;;
10461;SDS011;5278;42.656;23.374;2023-09-08T06:42:58;5.70;;;4.47;;
10461;SDS011;5278;42.656;23.374;2023-09-08T06:45:25;4.90;;;4.07;;
10461;SDS011;5278;42.656;23.374;2023-09-08T06:47:54;7.13;;;4.77;;
10461;SDS011;5278;42.656;23.374;2023-09-08T06:50:21;6.83;;;4.90;;
10461;SDS011;5278;42.656;23.374;2023-09-08T06:52:49;6.17;;;4.17;;
10461;SDS011;5278;42.656;23.374;2023-09-08T06:55:17;4.37;;;4.00;;
10461;SDS011;5278;42.656;23.374;2023-09-08T06:57:45;4.37;;;3.93;;
10461;SDS011;5278;42.656;23.374;2023-09-08T07:00:13;5.50;;;3.40;;
10461;SDS011;5278;42.656;23.374;2023-09-08T07:02:42;5.60;;;3.60;;
10461;SDS011;5278;42.656;23.374;2023-09-08T07:05:09;8.93;;;4.20;;
10461;SDS011;5278;42.656;23.374;2023-09-08T07:07:41;4.50;;;3.60;;
10461;SDS011;5278;42.656;23.374;2023-09-08T07:10:16;4.53;;;4.00;;
10461;SDS011;5278;42.656;23.374;2023-09-08T07:12:43;6.03;;;3.73;;
10461;SDS011;5278;42.656;23.374;2023-09-08T07:15:10;6.27;;;3.73;;
10461;SDS011;5278;42.656;23.374;2023-09-08T07:17:37;7.87;;;5.50;;
10461;SDS011;5278;42.656;23.374;2023-09-08T07:20:05;7.63;;;5.40;;
10461;SDS011;5278;42.656;23.374;2023-09-08T07:22:33;6.37;;;4.63;;
10461;SDS011;5278;42.656;23.374;2023-09-08T07:25:00;9.60;;;3.93;;
10461;SDS011;5278;42.656;23.374;2023-09-08T07:27:28;5.17;;;3.93;;
10461;SDS011;5278;42.656;23.374;2023-09-08T07:29:55;9.43;;;5.93;;
10461;SDS011;5278;42.656;23.374;2023-09-08T07:32:23;4.83;;;4.07;;
10461;SDS011;5278;42.656;23.374;2023-09-08T07:34:50;6.25;;;3.97;;
10461;SDS011;5278;42.656;23.374;2023-09-08T07:37:21;5.47;;;3.60;;
10461;SDS011;5278;42.656;23.374;2023-09-08T07:39:48;5.55;;;3.53;;
10461;SDS011;5278;42.656;23.374;2023-09-08T07:42:15;4.25;;;3.85;;
10461;SDS011;5278;42.656;23.374;2023-09-08T07:44:44;4.53;;;3.78;;
10461;SDS011;5278;42.656;23.374;2023-09-08T07:47:11;4.80;;;3.38;;
10461;SDS011;5278;42.656;23.374;2023-09-08T07:49:38;3.63;;;3.33;;
10461;SDS011;5278;42.656;23.374;2023-09-08T07:52:05;3.90;;;3.50;;
10461;SDS011;5278;42.656;23.374;2023-09-08T07:54:33;5.72;;;4.50;;
10461;SDS011;5278;42.656;23.374;2023-09-08T07:57:00;6.07;;;3.75;;
10461;SDS011;5278;42.656;23.374;2023-09-08T07:59:28;6.13;;;4.07;;
10461;SDS011;5278;42.656;23.374;2023-09-08T08:01:57;5.10;;;3.95;;
10461;SDS011;5278;42.656;23.374;2023-09-08T08:04:24;6.30;;;3.33;;
10461;SDS011;5278;42.656;23.374;2023-09-08T08:06:51;3.95;;;3.10;;
10461;SDS011;5278;42.656;23.374;2023-09-08T08:09:18;4.53;;;3.70;;
10461;SDS011;5278;42.656;23.374;2023-09-08T08:11:45;4.57;;;3.42;;
10461;SDS011;5278;42.656;23.374;2023-09-08T08:14:12;3.35;;;3.08;;
10461;SDS011;5278;42.656;23.374;2023-09-08T08:16:39;5.20;;;4.00;;
10461;SDS011;5278;42.656;23.374;2023-09-08T08:19:07;4.68;;;3.75;;
10461;SDS011;5278;42.656;23.374;2023-09-08T08:21:36;3.63;;;3.33;;
10461;SDS011;5278;42.656;23.374;2023-09-08T08:24:04;5.60;;;3.67;;
10461;SDS011;5278;42.656;23.374;2023-09-08T08:26:31;4.18;;;3.78;;
10461;SDS011;5278;42.656;23.374;2023-09-08T08:28:58;4.90;;;3.35;;
10461;SDS011;5278;42.656;23.374;2023-09-08T08:31:28;3.65;;;3.35;;
10461;SDS011;5278;42.656;23.374;2023-09-08T08:33:55;3.38;;;3.08;;
10461;SDS011;5278;42.656;23.374;2023-09-08T08:36:27;4.65;;;3.55;;
10461;SDS011;5278;42.656;23.374;2023-09-08T08:38:54;3.25;;;2.95;;
10461;SDS011;5278;42.656;23.374;2023-09-08T08:41:21;3.67;;;3.38;;
10461;SDS011;5278;42.656;23.374;2023-09-08T08:43:48;5.43;;;3.60;;
10461;SDS011;5278;42.656;23.374;2023-09-08T08:46:16;4.32;;;3.15;;
10461;SDS011;5278;42.656;23.374;2023-09-08T08:48:45;6.25;;;5.13;;
10461;SDS011;5278;42.656;23.374;2023-09-08T08:51:14;4.32;;;3.83;;
10461;SDS011;5278;42.656;23.374;2023-09-08T08:53:45;5.05;;;4.35;;
10461;SDS011;5278;42.656;23.374;2023-09-08T08:56:12;5.10;;;3.90;;
10461;SDS011;5278;42.656;23.374;2023-09-08T08:58:40;4.80;;;4.07;;
10461;SDS011;5278;42.656;23.374;2023-09-08T09:01:08;6.28;;;4.00;;
10461;SDS011;5278;42.656;23.374;2023-09-08T09:03:38;3.35;;;3.05;;
10461;SDS011;5278;42.656;23.374;2023-09-08T09:06:09;3.70;;;3.38;;
10461;SDS011;5278;42.656;23.374;2023-09-08T09:08:37;6.15;;;5.10;;
10461;SDS011;5278;42.656;23.374;2023-09-08T09:11:07;9.32;;;5.88;;
10461;SDS011;5278;42.656;23.374;2023-09-08T09:13:34;7.63;;;3.90;;
10461;SDS011;5278;42.656;23.374;2023-09-08T09:16:01;5.25;;;4.18;;
10461;SDS011;5278;42.656;23.374;2023-09-08T09:18:29;4.50;;;4.10;;
10461;SDS011;5278;42.656;23.374;2023-09-08T09:20:58;4.80;;;3.70;;
10461;SDS011;5278;42.656;23.374;2023-09-08T09:23:26;4.43;;;3.75;;
10461;SDS011;5278;42.656;23.374;2023-09-08T09:25:54;4.80;;;3.50;;
10461;SDS011;5278;42.656;23.374;2023-09-08T09:28:24;3.88;;;3.53;;
10461;SDS011;5278;42.656;23.374;2023-09-08T09:30:51;7.65;;;3.70;;
10461;SDS011;5278;42.656;23.374;2023-09-08T09:33:19;5.25;;;3.60;;
10461;SDS011;5278;42.656;23.374;2023-09-08T09:35:47;6.97;;;4.43;;
10461;SDS011;5278;42.656;23.374;2023-09-08T09:38:15;5.75;;;3.88;;
10461;SDS011;5278;42.656;23.374;2023-09-08T09:40:43;7.10;;;3.80;;
10461;SDS011;5278;42.656;23.374;2023-09-08T09:43:11;4.07;;;3.70;;
10461;SDS011;5278;42.656;23.374;2023-09-08T09:45:42;4.57;;;3.70;;
10461;SDS011;5278;42.656;23.374;2023-09-08T09:48:10;7.30;;;3.88;;
10461;SDS011;5278;42.656;23.374;2023-09-08T09:50:37;5.70;;;3.67;;
10461;SDS011;5278;42.656;23.374;2023-09-08T09:53:08;7.38;;;4.63;;
10461;SDS011;5278;42.656;23.374;2023-09-08T09:55:36;5.95;;;4.90;;
10461;SDS011;5278;42.656;23.374;2023-09-08T09:58:04;4.38;;;3.67;;
10461;SDS011;5278;42.656;23.374;2023-09-08T10:00:33;4.70;;;4.20;;
10461;SDS011;5278;42.656;23.374;2023-09-08T10:03:03;4.57;;;4.07;;
10461;SDS011;5278;42.656;23.374;2023-09-08T10:05:31;6.90;;;4.45;;
10461;SDS011;5278;42.656;23.374;2023-09-08T10:07:58;5.47;;;3.92;;
10461;SDS011;5278;42.656;23.374;2023-09-08T10:10:26;6.05;;;5.40;;
10461;SDS011;5278;42.656;23.374;2023-09-08T10:12:57;4.13;;;3.72;;
10461;SDS011;5278;42.656;23.374;2023-09-08T10:15:28;3.92;;;3.45;;
10461;SDS011;5278;42.656;23.374;2023-09-08T10:17:57;6.83;;;3.77;;
10461;SDS011;5278;42.656;23.374;2023-09-08T10:20:31;4.82;;;3.97;;
10461;SDS011;5278;42.656;23.374;2023-09-08T10:23:03;5.07;;;4.57;;
10461;SDS011;5278;42.656;23.374;2023-09-08T10:25:36;5.17;;;3.60;;
10461;SDS011;5278;42.656;23.374;2023-09-08T10:28:08;5.43;;;4.47;;
10461;SDS011;5278;42.656;23.374;2023-09-08T10:30:36;7.30;;;3.60;;
10461;SDS011;5278;42.656;23.374;2023-09-08T10:33:03;5.93;;;4.00;;
10461;SDS011;5278;42.656;23.374;2023-09-08T10:35:33;4.83;;;3.80;;
10461;SDS011;5278;42.656;23.374;2023-09-08T10:40:50;3.30;;;3.00;;
10461;SDS011;5278;42.656;23.374;2023-09-08T10:43:18;4.57;;;3.70;;
10461;SDS011;5278;42.656;23.374;2023-09-08T10:45:46;7.57;;;5.70;;
10461;SDS011;5278;42.656;23.374;2023-09-08T10:48:13;4.73;;;4.00;;
10461;SDS011;5278;42.656;23.374;2023-09-08T10:50:42;4.53;;;3.60;;
10461;SDS011;5278;42.656;23.374;2023-09-08T10:53:12;11.33;;;8.13;;
10461;SDS011;5278;42.656;23.374;2023-09-08T10:55:40;11.87;;;8.33;;
10461;SDS011;5278;42.656;23.374;2023-09-08T10:58:16;8.13;;;4.50;;
10461;SDS011;5278;42.656;23.374;2023-09-08T11:00:50;9.00;;;5.73;;
10461;SDS011;5278;42.656;23.374;2023-09-08T11:03:28;5.67;;;3.60;;
10461;SDS011;5278;42.656;23.374;2023-09-08T11:06:11;5.13;;;4.43;;
10461;SDS011;5278;42.656;23.374;2023-09-08T11:08:40;10.80;;;4.23;;
10461;SDS011;5278;42.656;23.374;2023-09-08T11:11:09;9.87;;;4.73;;
10461;SDS011;5278;42.656;23.374;2023-09-08T11:13:37;5.33;;;4.13;;
10461;SDS011;5278;42.656;23.374;2023-09-08T11:16:05;5.50;;;4.27;;
10461;SDS011;5278;42.656;23.374;2023-09-08T11:18:32;5.63;;;4.50;;
10461;SDS011;5278;42.656;23.374;2023-09-08T11:21:02;3.90;;;3.50;;
10461;SDS011;5278;42.656;23.374;2023-09-08T11:23:35;7.13;;;4.33;;
10461;SDS011;5278;42.656;23.374;2023-09-08T11:26:04;5.90;;;3.90;;
10461;SDS011;5278;42.656;23.374;2023-09-08T11:28:34;4.40;;;4.00;;
10461;SDS011;5278;42.656;23.374;2023-09-08T11:31:04;4.73;;;4.10;;
10461;SDS011;5278;42.656;23.374;2023-09-08T11:33:33;5.60;;;3.77;;
10461;SDS011;5278;42.656;23.374;2023-09-08T11:36:11;5.70;;;3.80;;
10461;SDS011;5278;42.656;23.374;2023-09-08T11:38:43;4.20;;;3.60;;
10461;SDS011;5278;42.656;23.374;2023-09-08T11:41:11;5.03;;;4.10;;
10461;SDS011;5278;42.656;23.374;2023-09-08T11:43:40;5.53;;;4.20;;
10461;SDS011;5278;42.656;23.374;2023-09-08T11:46:07;4.70;;;4.10;;
10461;SDS011;5278;42.656;23.374;2023-09-08T11:48:35;4.20;;;3.77;;
10461;SDS011;5278;42.656;23.374;2023-09-08T11:51:03;4.40;;;3.67;;
10461;SDS011;5278;42.656;23.374;2023-09-08T11:53:33;4.40;;;4.00;;
10461;SDS011;5278;42.656;23.374;2023-09-08T11:56:02;5.00;;;3.80;;
10461;SDS011;5278;42.656;23.374;2023-09-08T11:58:29;4.97;;;3.27;;
10461;SDS011;5278;42.656;23.374;2023-09-08T12:00:57;5.57;;;4.20;;
10461;SDS011;5278;42.656;23.374;2023-09-08T12:03:24;4.73;;;3.80;;
10461;SDS011;5278;42.656;23.374;2023-09-08T12:05:50;4.40;;;3.60;;
10461;SDS011;5278;42.656;23.374;2023-09-08T12:08:19;4.53;;;3.77;;
10461;SDS011;5278;42.656;23.374;2023-09-08T12:10:46;4.17;;;3.80;;
10461;SDS011;5278;42.656;23.374;2023-09-08T12:13:15;5.07;;;3.70;;
10461;SDS011;5278;42.656;23.374;2023-09-08T12:15:47;5.17;;;4.47;;
10461;SDS011;5278;42.656;23.374;2023-09-08T12:18:14;4.73;;;4.17;;
10461;SDS011;5278;42.656;23.374;2023-09-08T12:20:41;6.93;;;4.40;;
10461;SDS011;5278;42.656;23.374;2023-09-08T12:23:15;4.80;;;4.27;;
10461;SDS011;5278;42.656;23.374;2023-09-08T12:25:44;4.77;;;4.37;;
10461;SDS011;5278;42.656;23.374;2023-09-08T12:28:11;5.80;;;4.50;;
10461;SDS011;5278;42.656;23.374;2023-09-08T12:30:39;7.17;;;5.63;;
10461;SDS011;5278;42.656;23.374;2023-09-08T12:33:07;4.37;;;3.97;;
10461;SDS011;5278;42.656;23.374;2023-09-08T12:35:35;5.90;;;4.37;;
10461;SDS011;5278;42.656;23.374;2023-09-08T12:38:03;7.90;;;4.60;;
10461;SDS011;5278;42.656;23.374;2023-09-08T12:40:33;4.37;;;3.77;;
10461;SDS011;5278;42.656;23.374;2023-09-08T12:43:01;5.70;;;4.37;;
10461;SDS011;5278;42.656;23.374;2023-09-08T12:45:28;6.10;;;5.03;;
10461;SDS011;5278;42.656;23.374;2023-09-08T12:47:57;5.60;;;3.87;;
10461;SDS011;5278;42.656;23.374;2023-09-08T12:50:26;9.17;;;4.30;;
10461;SDS011;5278;42.656;23.374;2023-09-08T12:52:53;5.27;;;4.00;;
10461;SDS011;5278;42.656;23.374;2023-09-08T12:55:20;9.27;;;5.70;;
10461;SDS011;5278;42.656;23.374;2023-09-08T12:57:47;4.33;;;3.90;;
10461;SDS011;5278;42.656;23.374;2023-09-08T13:00:15;9.67;;;6.70;;
10461;SDS011;5278;42.656;23.374;2023-09-08T13:02:43;5.43;;;4.43;;
10461;SDS011;5278;42.656;23.374;2023-09-08T13:05:12;4.60;;;3.97;;
10461;SDS011;5278;42.656;23.374;2023-09-08T13:07:40;5.40;;;4.37;;
10461;SDS011;5278;42.656;23.374;2023-09-08T13:10:07;6.93;;;4.60;;
10461;SDS011;5278;42.656;23.374;2023-09-08T13:12:36;7.27;;;4.77;;
10461;SDS011;5278;42.656;23.374;2023-09-08T13:15:03;8.07;;;4.80;;
10461;SDS011;5278;42.656;23.374;2023-09-08T13:17:30;8.43;;;5.03;;
10461;SDS011;5278;42.656;23.374;2023-09-08T13:19:57;6.53;;;4.40;;
10461;SDS011;5278;42.656;23.374;2023-09-08T13:22:25;6.23;;;4.40;;
10461;SDS011;5278;42.656;23.374;2023-09-08T13:24:53;6.63;;;4.40;;
10461;SDS011;5278;42.656;23.374;2023-09-08T13:27:20;6.87;;;4.27;;
10461;SDS011;5278;42.656;23.374;2023-09-08T13:29:46;7.77;;;5.13;;
10461;SDS011;5278;42.656;23.374;2023-09-08T13:32:13;5.17;;;4.67;;
10461;SDS011;5278;42.656;23.374;2023-09-08T13:34:41;7.90;;;6.53;;
10461;SDS011;5278;42.656;23.374;2023-09-08T13:37:08;10.03;;;6.17;;
10461;SDS011;5278;42.656;23.374;2023-09-08T13:39:37;5.70;;;4.67;;
10461;SDS011;5278;42.656;23.374;2023-09-08T13:42:04;7.17;;;4.33;;
10461;SDS011;5278;42.656;23.374;2023-09-08T13:44:31;5.47;;;4.87;;
10461;SDS011;5278;42.656;23.374;2023-09-08T13:46:58;5.30;;;4.80;;
10461;SDS011;5278;42.656;23.374;2023-09-08T13:49:25;5.27;;;4.10;;
10461;SDS011;5278;42.656;23.374;2023-09-08T13:51:54;7.93;;;5.77;;
10461;SDS011;5278;42.656;23.374;2023-09-08T13:54:20;5.57;;;4.03;;
10461;SDS011;5278;42.656;23.374;2023-09-08T13:56:57;7.17;;;5.77;;
10461;SDS011;5278;42.656;23.374;2023-09-08T13:59:25;7.07;;;4.70;;
10461;SDS011;5278;42.656;23.374;2023-09-08T14:01:53;12.40;;;5.27;;
10461;SDS011;5278;42.656;23.374;2023-09-08T14:04:22;8.00;;;4.80;;
10461;SDS011;5278;42.656;23.374;2023-09-08T14:06:50;6.33;;;4.33;;
10461;SDS011;5278;42.656;23.374;2023-09-08T14:09:17;10.43;;;4.93;;
10461;SDS011;5278;42.656;23.374;2023-09-08T14:11:44;7.07;;;4.53;;
10461;SDS011;5278;42.656;23.374;2023-09-08T14:14:12;7.03;;;4.20;;
10461;SDS011;5278;42.656;23.374;2023-09-08T14:16:39;6.53;;;4.43;;
10461;SDS011;5278;42.656;23.374;2023-09-08T14:19:06;6.30;;;4.10;;
10461;SDS011;5278;42.656;23.374;2023-09-08T14:21:33;5.93;;;4.37;;
10461;SDS011;5278;42.656;23.374;2023-09-08T14:24:02;4.77;;;4.10;;
10461;SDS011;5278;42.656;23.374;2023-09-08T14:26:29;5.93;;;4.00;;
10461;SDS011;5278;42.656;23.374;2023-09-08T14:28:56;5.03;;;3.63;;
10461;SDS011;5278;42.656;23.374;2023-09-08T14:31:24;3.90;;;3.60;;
10461;SDS011;5278;42.656;23.374;2023-09-08T14:33:51;5.50;;;4.53;;
10461;SDS011;5278;42.656;23.374;2023-09-08T14:36:18;4.33;;;3.93;;
10461;SDS011;5278;42.656;23.374;2023-09-08T14:38:46;7.83;;;5.73;;
10461;SDS011;5278;42.656;23.374;2023-09-08T14:41:13;4.20;;;3.70;;
10461;SDS011;5278;42.656;23.374;2023-09-08T14:43:40;5.13;;;4.63;;
10461;SDS011;5278;42.656;23.374;2023-09-08T14:46:07;4.60;;;4.07;;
10461;SDS011;5278;42.656;23.374;2023-09-08T14:48:35;5.20;;;4.70;;
10461;SDS011;5278;42.656;23.374;2023-09-08T14:51:02;4.73;;;4.23;;
10461;SDS011;5278;42.656;23.374;2023-09-08T14:53:31;6.40;;;5.17;;